DTMB

Monastir Habib Bourguiba International Airport

Monastir, Tunisia
METAR DTMB 162200Z 19010KT NSC 14/06 Q1021 NOSIG
Observed Flight Rules
Dec-16 @ 22:00 UTC (37 minutes ago)
Wind Clouds
190° at 10 knots
  • Clear skies
Temperatures Readings
Current 14°C / 57°F
Dewpoint 6°C / 43°F
Humidity 59%
Altimeter 30.15" Hg
Pressure 1021 hPa
Elevation 2
METAR DTMB 162200Z 19010KT NSC 14/06 Q1021 NOSIG
Observed Flight Rules
Dec-16 @ 22:00 UTC
(37 minutes ago)
Wind
190° at 10 knots
Clouds
  • Clear skies
Temperature Dewpoint
14°C / 57°F 6°C / 43°F
Humidity Altimeter Pressure
59% 30.15" Hg 1021 hPa